Time;durP1;ratioP1;P1;durP2;ratioP2;P2;SDS_P1;SDS_P2;PMS_P1;PMS_P2;Temp;Humidity;BMP_temperature;BMP_pressure;BME280_temperature;BME280_humidity;BME280_pressure;Samples;Min_cycle;Max_cycle;Signal;HPM_P1;HPM_P2
2022/03/31 00:00:31;;;;;;;2.23;1.97;;;8.60;98.00;;;;;;6121156;23;20440;-69
2022/03/31 00:02:59;;;;;;;1.30;1.30;;;8.60;98.00;;;;;;6120764;23;20437;-69
2022/03/31 00:05:26;;;;;;;3.40;2.30;;;8.60;98.00;;;;;;6120856;23;20421;-69
2022/03/31 00:07:54;;;;;;;1.83;1.50;;;8.60;98.00;;;;;;6120714;23;20422;-69
2022/03/31 00:10:24;;;;;;;2.03;1.60;;;8.60;98.00;;;;;;6121310;23;20492;-69
2022/03/31 00:12:52;;;;;;;1.90;1.80;;;8.60;98.00;;;;;;6120777;23;20468;-69
2022/03/31 00:15:20;;;;;;;1.90;1.83;;;8.50;98.00;;;;;;6121038;23;20444;-69
2022/03/31 00:17:49;;;;;;;1.90;1.63;;;8.50;98.00;;;;;;6094955;23;20448;-69
2022/03/31 00:20:16;;;;;;;1.30;1.30;;;8.50;98.00;;;;;;6120999;23;20475;-69
2022/03/31 00:22:43;;;;;;;3.50;2.23;;;8.50;98.00;;;;;;6121121;23;20417;-69
2022/03/31 00:25:12;;;;;;;1.70;1.40;;;8.50;98.00;;;;;;6121388;23;20420;-69
2022/03/31 00:27:39;;;;;;;1.67;1.43;;;8.50;98.00;;;;;;6121311;23;20777;-69
2022/03/31 00:30:09;;;;;;;2.17;2.00;;;8.50;98.00;;;;;;6121545;23;20397;-70
2022/03/31 00:32:36;;;;;;;2.10;1.93;;;8.50;98.00;;;;;;6121450;23;20460;-69
2022/03/31 00:35:06;;;;;;;3.03;2.23;;;8.50;98.00;;;;;;6121266;23;20461;-69
2022/03/31 00:37:33;;;;;;;2.53;1.50;;;8.60;98.00;;;;;;6120610;23;20413;-69
2022/03/31 00:40:00;;;;;;;1.80;1.63;;;8.50;98.00;;;;;;6121041;23;20469;-69
2022/03/31 00:42:27;;;;;;;2.37;1.50;;;8.50;98.00;;;;;;6121022;23;20458;-69
2022/03/31 00:44:54;;;;;;;1.43;1.30;;;8.40;98.00;;;;;;6118106;23;20428;-69
2022/03/31 00:47:22;;;;;;;3.60;1.63;;;8.30;98.00;;;;;;6121004;23;20451;-69
2022/03/31 00:49:49;;;;;;;1.70;1.70;;;8.30;98.00;;;;;;6120742;23;20919;-69
2022/03/31 00:52:17;;;;;;;2.47;1.73;;;8.30;98.00;;;;;;6120893;23;20421;-69
2022/03/31 00:54:44;;;;;;;1.20;1.20;;;8.30;98.00;;;;;;6120906;23;20406;-69
2022/03/31 00:57:12;;;;;;;1.53;1.43;;;8.30;98.00;;;;;;6121154;23;20740;-69
2022/03/31 00:59:40;;;;;;;1.30;1.23;;;8.30;98.00;;;;;;6120684;23;20426;-69
2022/03/31 01:02:08;;;;;;;1.20;1.10;;;8.50;98.00;;;;;;6121251;23;20481;-69
2022/03/31 01:04:35;;;;;;;2.90;1.80;;;8.30;98.00;;;;;;6120913;23;20729;-69
2022/03/31 01:07:03;;;;;;;1.60;1.10;;;8.40;98.00;;;;;;6120761;23;20417;-69
2022/03/31 01:09:32;;;;;;;2.53;1.80;;;8.30;98.00;;;;;;6121127;23;20467;-69
2022/03/31 01:12:02;;;;;;;1.30;1.20;;;8.30;98.00;;;;;;6120826;23;20424;-69
2022/03/31 01:14:33;;;;;;;1.50;1.40;;;8.30;98.00;;;;;;6121064;23;20417;-69
2022/03/31 01:17:00;;;;;;;1.80;1.60;;;8.40;98.00;;;;;;6120737;23;20469;-69
2022/03/31 01:19:27;;;;;;;2.93;1.70;;;8.30;98.00;;;;;;6120766;23;20926;-68
2022/03/31 01:21:54;;;;;;;1.63;1.60;;;8.20;98.00;;;;;;6121395;23;20695;-68
2022/03/31 01:24:22;;;;;;;1.87;1.50;;;8.10;98.00;;;;;;6121159;23;20420;-69
2022/03/31 01:26:49;;;;;;;1.37;1.27;;;8.10;98.00;;;;;;6120971;23;20417;-69
2022/03/31 01:29:16;;;;;;;1.97;1.37;;;8.10;98.00;;;;;;6095235;23;20440;-69
2022/03/31 01:31:43;;;;;;;2.70;1.93;;;8.10;98.00;;;;;;6120330;23;20445;-68
2022/03/31 01:34:10;;;;;;;1.30;1.10;;;8.00;98.00;;;;;;6120385;23;20433;-68
2022/03/31 01:36:37;;;;;;;1.30;1.20;;;8.10;98.00;;;;;;6120235;23;20449;-68
2022/03/31 01:39:05;;;;;;;2.17;1.30;;;8.20;98.00;;;;;;6120395;23;20420;-68
2022/03/31 01:41:34;;;;;;;1.63;1.57;;;8.10;98.00;;;;;;6122807;23;20463;-68
2022/03/31 01:44:01;;;;;;;2.13;1.63;;;8.10;98.00;;;;;;6097729;23;20430;-69
2022/03/31 01:46:29;;;;;;;1.30;1.10;;;8.20;98.00;;;;;;6124216;23;20906;-69
2022/03/31 01:48:56;;;;;;;1.63;1.43;;;8.30;98.00;;;;;;6123592;23;20413;-69
2022/03/31 01:51:23;;;;;;;1.87;1.77;;;8.30;98.00;;;;;;6122723;23;20432;-69
2022/03/31 01:53:50;;;;;;;2.77;2.17;;;8.20;98.00;;;;;;6123916;23;20436;-68
2022/03/31 01:56:17;;;;;;;1.60;1.40;;;8.10;98.00;;;;;;6123938;23;20467;-68
2022/03/31 01:58:46;;;;;;;2.03;1.83;;;8.10;98.00;;;;;;6123722;23;20399;-68
2022/03/31 02:01:13;;;;;;;1.57;1.43;;;8.00;98.00;;;;;;6124081;23;20415;-68
2022/03/31 02:03:40;;;;;;;2.00;1.90;;;8.00;98.00;;;;;;6123667;23;20425;-68
2022/03/31 02:06:07;;;;;;;2.57;2.13;;;8.00;98.00;;;;;;6097714;23;20507;-68
2022/03/31 02:08:35;;;;;;;1.60;1.60;;;8.10;98.00;;;;;;6124062;23;20408;-68
2022/03/31 02:11:02;;;;;;;1.50;1.50;;;8.20;98.00;;;;;;6123058;23;20472;-68
2022/03/31 02:13:29;;;;;;;4.80;2.20;;;8.20;98.00;;;;;;6123883;23;20423;-68
2022/03/31 02:15:57;;;;;;;1.40;1.37;;;8.10;98.00;;;;;;6123894;23;20500;-68
2022/03/31 02:18:25;;;;;;;2.07;1.43;;;8.10;98.00;;;;;;6097802;23;20739;-68
2022/03/31 02:20:53;;;;;;;1.20;1.20;;;8.00;98.00;;;;;;6098413;23;20495;-68
2022/03/31 02:23:20;;;;;;;1.20;1.17;;;8.00;98.00;;;;;;6123612;23;20455;-68
2022/03/31 02:25:47;;;;;;;1.30;1.30;;;8.00;98.00;;;;;;6123461;23;20421;-68
2022/03/31 02:28:14;;;;;;;1.73;1.73;;;7.90;98.00;;;;;;6123648;23;21074;-68
2022/03/31 02:30:42;;;;;;;1.97;1.47;;;7.90;98.00;;;;;;6097573;23;21041;-68
2022/03/31 02:33:10;;;;;;;3.00;1.60;;;7.90;98.00;;;;;;6123614;23;20417;-68
2022/03/31 02:35:39;;;;;;;1.53;1.50;;;8.00;98.00;;;;;;6123519;23;20428;-68
2022/03/31 02:38:06;;;;;;;1.70;1.67;;;7.90;98.00;;;;;;6122798;23;20429;-68
2022/03/31 02:40:33;;;;;;;1.73;1.70;;;7.90;98.00;;;;;;6123596;23;20912;-68
2022/03/31 02:43:00;;;;;;;2.70;1.87;;;8.00;98.00;;;;;;6123466;23;20448;-68
2022/03/31 02:45:27;;;;;;;2.20;1.53;;;8.00;98.00;;;;;;6123552;23;20788;-68
2022/03/31 02:47:54;;;;;;;1.60;1.53;;;8.10;98.00;;;;;;6097569;23;20886;-68
2022/03/31 02:50:23;;;;;;;2.90;1.70;;;8.10;98.00;;;;;;6097011;23;20443;-68
2022/03/31 02:55:34;;;;;;;2.07;1.93;;;7.90;98.00;;;;;;6121572;23;20479;-68
2022/03/31 02:58:05;;;;;;;1.40;1.30;;;7.80;98.00;;;;;;6121653;23;20420;-68
2022/03/31 03:00:33;;;;;;;1.50;1.47;;;7.70;98.00;;;;;;6121936;23;20409;-68
2022/03/31 03:03:01;;;;;;;1.20;1.00;;;7.70;98.00;;;;;;6121463;23;20408;-68
2022/03/31 03:05:30;;;;;;;1.90;1.70;;;7.60;98.00;;;;;;6121617;23;20425;-68
2022/03/31 03:07:57;;;;;;;2.00;1.87;;;7.60;98.00;;;;;;6121509;23;20421;-68
2022/03/31 03:10:24;;;;;;;1.30;1.30;;;7.60;98.00;;;;;;6071317;23;20455;-68
2022/03/31 03:12:51;;;;;;;1.50;1.50;;;7.50;98.00;;;;;;6121509;23;20463;-69
2022/03/31 03:15:19;;;;;;;2.23;1.60;;;7.40;98.00;;;;;;6120964;23;20467;-69
2022/03/31 03:17:48;;;;;;;2.10;1.63;;;7.40;98.00;;;;;;6121225;23;20855;-69
2022/03/31 03:20:17;;;;;;;2.30;2.10;;;7.50;98.00;;;;;;6121034;23;20423;-68
2022/03/31 03:22:47;;;;;;;1.60;1.57;;;7.60;98.00;;;;;;6121209;23;20463;-68
2022/03/31 03:25:15;;;;;;;1.30;1.20;;;7.60;98.00;;;;;;6121105;23;20460;-69
2022/03/31 03:27:43;;;;;;;1.50;1.40;;;7.80;98.00;;;;;;6121526;23;20426;-69
2022/03/31 03:30:11;;;;;;;1.73;1.63;;;7.80;98.00;;;;;;6121329;23;20751;-68
2022/03/31 03:32:39;;;;;;;1.90;1.60;;;7.90;98.00;;;;;;6121412;23;20715;-68
2022/03/31 03:35:07;;;;;;;1.57;1.50;;;7.70;98.00;;;;;;6121379;23;20423;-68
2022/03/31 03:37:34;;;;;;;1.80;1.60;;;7.80;98.00;;;;;;6121069;23;20501;-69
2022/03/31 03:40:04;;;;;;;1.43;1.40;;;7.80;98.00;;;;;;6120976;23;20463;-69
2022/03/31 03:42:32;;;;;;;1.27;1.23;;;7.70;98.00;;;;;;6121564;23;20404;-69
2022/03/31 03:44:59;;;;;;;1.20;1.00;;;7.60;98.00;;;;;;6121551;23;20773;-69
2022/03/31 03:47:27;;;;;;;2.47;1.77;;;7.50;98.00;;;;;;6121484;23;20493;-68
2022/03/31 03:49:53;;;;;;;2.80;1.93;;;7.40;98.00;;;;;;6121446;23;20463;-68
2022/03/31 03:52:21;;;;;;;1.97;1.63;;;7.40;98.00;;;;;;6121231;23;20421;-69
2022/03/31 03:54:48;;;;;;;1.27;1.20;;;7.60;98.00;;;;;;6121293;23;20930;-68
2022/03/31 03:57:17;;;;;;;2.50;2.00;;;7.80;98.00;;;;;;6121434;23;20750;-69
2022/03/31 03:59:44;;;;;;;1.60;1.57;;;7.80;98.00;;;;;;6120299;23;20421;-68
2022/03/31 04:02:12;;;;;;;1.30;1.30;;;7.60;98.00;;;;;;6120515;23;20911;-68
2022/03/31 04:04:39;;;;;;;1.80;1.40;;;7.50;98.00;;;;;;6094473;23;20503;-69
2022/03/31 04:07:07;;;;;;;1.77;1.57;;;7.50;98.00;;;;;;6121166;23;20416;-68
2022/03/31 04:09:35;;;;;;;2.17;1.60;;;7.80;98.00;;;;;;6121490;23;20405;-68
2022/03/31 04:12:02;;;;;;;2.93;1.50;;;7.70;98.00;;;;;;6120983;23;20514;-68
2022/03/31 04:14:30;;;;;;;2.00;1.50;;;7.80;98.00;;;;;;6121413;23;20477;-68
2022/03/31 04:16:57;;;;;;;1.40;1.30;;;7.70;98.00;;;;;;6120888;23;20433;-68
2022/03/31 04:19:24;;;;;;;3.60;2.10;;;7.50;98.00;;;;;;6120956;23;20427;-68
2022/03/31 04:21:51;;;;;;;1.70;1.27;;;7.40;98.00;;;;;;6121428;23;20926;-68
2022/03/31 04:24:18;;;;;;;2.53;2.43;;;7.30;98.00;;;;;;6121213;23;20417;-68
2022/03/31 04:26:45;;;;;;;2.33;2.13;;;7.20;98.00;;;;;;6120944;23;20424;-68
2022/03/31 04:29:12;;;;;;;2.43;1.43;;;7.20;98.00;;;;;;6121187;23;20501;-68
2022/03/31 04:31:43;;;;;;;1.83;1.53;;;7.10;98.00;;;;;;6121240;23;20745;-68
2022/03/31 04:34:10;;;;;;;1.63;1.33;;;7.10;98.00;;;;;;6121383;23;20410;-68
2022/03/31 04:36:37;;;;;;;1.67;1.57;;;7.00;98.00;;;;;;6121281;23;20501;-68
2022/03/31 04:39:05;;;;;;;2.63;2.37;;;7.20;98.00;;;;;;6121171;23;20416;-68
2022/03/31 04:41:32;;;;;;;3.20;2.03;;;7.40;98.00;;;;;;6120982;23;20417;-68
2022/03/31 04:43:59;;;;;;;1.60;1.50;;;7.40;98.00;;;;;;6120854;23;20427;-68
2022/03/31 04:46:26;;;;;;;1.87;1.53;;;7.50;98.00;;;;;;6121138;23;20924;-68
2022/03/31 04:48:54;;;;;;;2.10;1.93;;;7.50;98.00;;;;;;6121578;23;20877;-68
2022/03/31 04:51:21;;;;;;;1.60;1.50;;;7.30;98.00;;;;;;6121361;23;20766;-68
2022/03/31 04:53:48;;;;;;;1.20;1.10;;;7.20;98.00;;;;;;6121255;23;20784;-68
2022/03/31 04:56:17;;;;;;;3.00;1.73;;;7.50;98.00;;;;;;6121012;23;20486;-68
2022/03/31 04:58:44;;;;;;;2.30;2.10;;;7.60;98.00;;;;;;6095045;23;20474;-68
2022/03/31 05:01:11;;;;;;;1.30;1.30;;;7.60;98.00;;;;;;6095147;23;20464;-68
2022/03/31 05:03:39;;;;;;;2.13;1.80;;;7.40;98.00;;;;;;6121314;23;20411;-68
2022/03/31 05:06:08;;;;;;;3.90;1.93;;;7.30;98.00;;;;;;6121026;23;20420;-68
2022/03/31 05:08:36;;;;;;;2.00;1.93;;;7.20;98.00;;;;;;6121379;23;20435;-68
2022/03/31 05:11:04;;;;;;;1.40;1.40;;;7.30;98.00;;;;;;6121041;23;20929;-68
2022/03/31 05:13:31;;;;;;;1.30;1.20;;;7.10;98.00;;;;;;6121408;23;20728;-68
2022/03/31 05:15:58;;;;;;;1.70;1.60;;;7.20;98.00;;;;;;6120392;23;20938;-68
2022/03/31 05:18:25;;;;;;;2.33;2.13;;;7.40;98.00;;;;;;6121035;23;20421;-68
2022/03/31 05:20:55;;;;;;;2.27;2.07;;;7.40;98.00;;;;;;6121518;23;20432;-68
2022/03/31 05:23:23;;;;;;;1.77;1.70;;;7.50;98.00;;;;;;6121484;23;20405;-68
2022/03/31 05:25:50;;;;;;;1.97;1.53;;;7.40;98.00;;;;;;6121366;23;20741;-68
2022/03/31 05:28:18;;;;;;;1.67;1.60;;;7.50;98.00;;;;;;6121034;23;20852;-68
2022/03/31 05:30:44;;;;;;;1.73;1.43;;;7.40;98.00;;;;;;6120635;23;20446;-68
2022/03/31 05:33:12;;;;;;;1.87;1.77;;;7.30;98.00;;;;;;6120400;23;20905;-68
2022/03/31 05:35:38;;;;;;;1.20;1.13;;;7.20;98.00;;;;;;6120634;23;20415;-68
2022/03/31 05:38:06;;;;;;;2.10;1.73;;;7.10;98.00;;;;;;6120809;23;20632;-68
2022/03/31 05:40:35;;;;;;;2.13;1.87;;;7.10;98.00;;;;;;6120779;23;20420;-68
2022/03/31 05:43:02;;;;;;;2.07;1.67;;;7.10;98.00;;;;;;6120986;23;20423;-68
2022/03/31 05:45:29;;;;;;;2.40;1.73;;;7.00;98.00;;;;;;6120582;23;20420;-68
2022/03/31 05:47:56;;;;;;;1.47;1.37;;;7.00;98.00;;;;;;6120698;23;20421;-68
2022/03/31 05:50:23;;;;;;;2.60;1.77;;;7.10;98.00;;;;;;6119884;23;20467;-68
2022/03/31 05:52:51;;;;;;;1.63;1.50;;;7.10;98.00;;;;;;6118192;23;20740;-68
2022/03/31 05:55:19;;;;;;;1.60;1.53;;;7.10;98.00;;;;;;6120256;23;20419;-68
2022/03/31 05:57:48;;;;;;;1.73;1.50;;;7.20;98.00;;;;;;6120585;23;20885;-68
2022/03/31 06:00:17;;;;;;;1.67;1.67;;;7.30;98.00;;;;;;6120376;23;20775;-68
2022/03/31 06:02:45;;;;;;;2.33;1.50;;;7.30;98.00;;;;;;6120597;23;20475;-68
2022/03/31 06:05:12;;;;;;;2.50;1.83;;;7.30;98.00;;;;;;6120375;23;20511;-68
2022/03/31 06:07:40;;;;;;;1.77;1.27;;;7.20;98.00;;;;;;6120182;23;20402;-68
2022/03/31 06:10:08;;;;;;;1.87;1.67;;;7.20;98.00;;;;;;6120551;23;20739;-73
2022/03/31 06:12:37;;;;;;;2.20;1.67;;;7.30;98.00;;;;;;6120647;23;20451;-69
2022/03/31 06:15:07;;;;;;;1.57;1.53;;;7.40;98.00;;;;;;6120312;23;20430;-69
2022/03/31 06:17:37;;;;;;;1.70;1.70;;;7.40;98.00;;;;;;6120155;23;20447;-69
2022/03/31 06:20:04;;;;;;;1.43;1.37;;;7.30;98.00;;;;;;6120315;23;20416;-69
2022/03/31 06:22:31;;;;;;;4.33;2.30;;;7.30;98.00;;;;;;6120567;23;20468;-69
2022/03/31 06:24:58;;;;;;;1.60;1.50;;;7.30;98.00;;;;;;6120035;23;20903;-69
2022/03/31 06:27:26;;;;;;;1.43;1.43;;;7.30;98.00;;;;;;6121564;23;20805;-69
2022/03/31 06:29:53;;;;;;;1.60;1.33;;;7.30;98.00;;;;;;6121414;23;20441;-68
2022/03/31 06:32:21;;;;;;;1.63;1.40;;;7.20;98.00;;;;;;6121688;23;20404;-68
2022/03/31 06:34:48;;;;;;;2.17;1.60;;;7.40;98.00;;;;;;6121942;23;20399;-68
2022/03/31 06:37:15;;;;;;;2.67;2.07;;;7.40;98.00;;;;;;6121169;23;20455;-68
2022/03/31 06:39:42;;;;;;;2.47;2.33;;;7.40;98.00;;;;;;6121380;23;20454;-70
2022/03/31 06:42:10;;;;;;;1.90;1.70;;;7.40;98.00;;;;;;6121352;23;20450;-71
2022/03/31 06:44:38;;;;;;;2.20;2.00;;;7.40;98.00;;;;;;6120993;23;20419;-70
2022/03/31 06:47:07;;;;;;;3.60;2.10;;;7.50;98.00;;;;;;6121194;23;20405;-70
2022/03/31 06:49:36;;;;;;;4.90;2.10;;;7.50;98.00;;;;;;6121396;23;20438;-70
2022/03/31 06:52:03;;;;;;;2.23;2.03;;;7.50;98.00;;;;;;6120932;23;20468;-70
2022/03/31 06:54:30;;;;;;;3.33;3.13;;;7.50;98.00;;;;;;6121739;23;20459;-70
2022/03/31 06:56:57;;;;;;;2.70;1.93;;;7.50;98.00;;;;;;6121230;23;20438;-70
2022/03/31 06:59:24;;;;;;;1.30;1.27;;;7.60;98.00;;;;;;6121583;23;20725;-70
2022/03/31 07:01:51;;;;;;;1.60;1.60;;;7.60;98.00;;;;;;6121372;23;20917;-70
2022/03/31 07:04:18;;;;;;;1.33;1.17;;;7.60;98.00;;;;;;6121558;23;20420;-70
2022/03/31 07:06:48;;;;;;;1.53;1.43;;;7.50;98.00;;;;;;6121363;23;20456;-70
2022/03/31 07:09:15;;;;;;;1.67;1.40;;;7.60;98.00;;;;;;6121282;23;20420;-71
2022/03/31 07:11:42;;;;;;;3.00;2.10;;;7.70;98.00;;;;;;6121361;23;20415;-69
2022/03/31 07:14:09;;;;;;;1.83;1.63;;;7.70;98.00;;;;;;6095636;23;20899;-70
2022/03/31 07:16:39;;;;;;;1.97;1.87;;;7.70;98.00;;;;;;6121458;23;20875;-71
2022/03/31 07:19:07;;;;;;;1.67;1.33;;;7.70;98.00;;;;;;6095925;23;20410;-71
2022/03/31 07:21:34;;;;;;;2.37;1.83;;;7.70;98.00;;;;;;6119264;23;20436;-71
2022/03/31 07:24:02;;;;;;;1.60;1.53;;;7.80;98.00;;;;;;6120244;23;20962;-69
2022/03/31 07:26:30;;;;;;;2.03;1.60;;;7.80;98.00;;;;;;6120235;23;20447;-71
2022/03/31 07:28:57;;;;;;;2.90;2.10;;;7.90;98.00;;;;;;6121180;23;20454;-71
2022/03/31 07:31:25;;;;;;;1.83;1.63;;;8.00;98.00;;;;;;6121545;23;20931;-71
2022/03/31 07:33:52;;;;;;;1.80;1.73;;;8.10;98.00;;;;;;6120830;23;20903;-71
2022/03/31 07:36:19;;;;;;;2.40;1.63;;;8.10;98.00;;;;;;6121496;23;20467;-71
2022/03/31 07:38:46;;;;;;;2.13;1.83;;;8.10;98.00;;;;;;6095049;23;21045;-71
2022/03/31 07:41:16;;;;;;;1.70;1.13;;;9.00;98.00;;;;;;6121114;23;20912;-71
2022/03/31 07:43:44;;;;;;;2.37;2.23;;;9.70;98.00;;;;;;6121041;23;20398;-68
2022/03/31 07:46:11;;;;;;;2.57;2.40;;;10.00;98.00;;;;;;6121009;23;20420;-68
2022/03/31 07:48:39;;;;;;;2.70;2.20;;;9.70;98.00;;;;;;6121343;23;20479;-69
2022/03/31 07:51:06;;;;;;;1.93;1.60;;;9.50;98.00;;;;;;6120958;23;20427;-68
2022/03/31 07:53:33;;;;;;;1.47;1.43;;;9.30;98.00;;;;;;6121227;23;20487;-70
2022/03/31 07:56:01;;;;;;;2.17;2.03;;;9.30;98.00;;;;;;6121367;23;20453;-71
2022/03/31 07:58:30;;;;;;;2.03;1.30;;;9.60;98.00;;;;;;6120876;23;20953;-71
2022/03/31 08:00:57;;;;;;;4.20;2.10;;;9.30;98.00;;;;;;6121469;23;20716;-71
2022/03/31 08:03:24;;;;;;;2.33;2.07;;;9.20;98.00;;;;;;6121000;23;20880;-71
2022/03/31 08:05:52;;;;;;;2.00;1.93;;;9.00;98.00;;;;;;6121146;23;20428;-71
2022/03/31 08:08:19;;;;;;;1.87;1.77;;;9.10;98.00;;;;;;6121612;23;20407;-71
2022/03/31 08:10:46;;;;;;;2.77;1.87;;;9.10;98.00;;;;;;6121580;23;20427;-71
2022/03/31 08:13:13;;;;;;;2.13;1.53;;;9.20;98.00;;;;;;6121734;23;20409;-71
2022/03/31 08:15:41;;;;;;;1.90;1.53;;;9.30;98.00;;;;;;6121418;23;20861;-71
2022/03/31 08:18:08;;;;;;;4.13;3.10;;;9.20;98.00;;;;;;6121589;23;20438;-71
2022/03/31 08:20:35;;;;;;;2.43;2.10;;;9.20;98.00;;;;;;6121559;23;20421;-71
2022/03/31 08:23:02;;;;;;;2.60;1.73;;;9.10;98.00;;;;;;6120903;23;20935;-71
2022/03/31 08:25:30;;;;;;;2.07;1.70;;;9.10;98.00;;;;;;6121257;23;20456;-71
2022/03/31 08:27:57;;;;;;;2.70;2.07;;;9.20;98.00;;;;;;6120889;23;20926;-71
2022/03/31 08:30:25;;;;;;;2.57;1.43;;;9.20;98.00;;;;;;6121002;23;20408;-71
2022/03/31 08:32:53;;;;;;;2.97;2.20;;;9.30;98.00;;;;;;6121293;23;20922;-71
2022/03/31 08:35:20;;;;;;;1.93;1.80;;;9.40;98.00;;;;;;6121193;23;20421;-71
2022/03/31 08:37:48;;;;;;;1.90;1.73;;;9.50;98.00;;;;;;6121127;23;20473;-71
2022/03/31 08:40:15;;;;;;;2.07;1.70;;;9.60;98.00;;;;;;6121221;23;20406;-72
2022/03/31 08:42:44;;;;;;;3.57;2.57;;;9.60;98.00;;;;;;6121104;23;20508;-71
2022/03/31 08:45:14;;;;;;;1.83;1.50;;;9.50;98.00;;;;;;6121125;23;20490;-71
2022/03/31 08:47:44;;;;;;;2.23;2.03;;;9.40;98.00;;;;;;6121184;23;20469;-72
2022/03/31 08:50:12;;;;;;;1.93;1.70;;;9.30;98.00;;;;;;6150658;23;20461;-71
2022/03/31 08:52:40;;;;;;;2.13;1.63;;;9.20;98.00;;;;;;6244820;22;20417;-72
2022/03/31 08:55:09;;;;;;;6.03;2.70;;;9.30;98.00;;;;;;6244939;22;20499;-69
2022/03/31 08:57:44;;;;;;;3.10;2.57;;;9.30;98.00;;;;;;6244959;22;20444;-69
2022/03/31 09:00:13;;;;;;;1.60;1.57;;;9.20;98.00;;;;;;6244816;22;20428;-69
2022/03/31 09:02:41;;;;;;;2.80;2.13;;;9.10;98.00;;;;;;6245059;22;20421;-69
2022/03/31 09:05:10;;;;;;;2.00;1.83;;;9.20;98.00;;;;;;6244611;22;20426;-69
2022/03/31 09:07:53;;;;;;;1.67;1.60;;;9.10;98.00;;;;;;6245310;22;20496;-69
2022/03/31 09:10:32;;;;;;;3.63;2.20;;;9.20;98.00;;;;;;6242805;23;20444;-69
2022/03/31 09:13:01;;;;;;;1.73;1.60;;;9.40;98.00;;;;;;6244091;22;20400;-69
2022/03/31 09:15:28;;;;;;;1.87;1.60;;;9.20;98.00;;;;;;6244196;22;20418;-69
2022/03/31 09:17:57;;;;;;;1.93;1.83;;;9.30;98.00;;;;;;6244218;22;20475;-69
2022/03/31 09:20:35;;;;;;;1.80;1.67;;;9.50;98.00;;;;;;6243971;22;20425;-70
2022/03/31 09:23:04;;;;;;;5.07;2.77;;;9.60;98.00;;;;;;6244710;22;20736;-69
2022/03/31 09:25:32;;;;;;;4.07;2.70;;;9.70;98.00;;;;;;6244335;22;20763;-69
2022/03/31 09:28:01;;;;;;;3.00;1.53;;;9.80;98.00;;;;;;6244658;22;20827;-69
2022/03/31 09:30:30;;;;;;;1.70;1.50;;;9.90;98.00;;;;;;6243851;22;20467;-68
2022/03/31 09:33:02;;;;;;;1.70;1.67;;;10.00;98.00;;;;;;6244324;22;20401;-68
2022/03/31 09:35:32;;;;;;;5.03;2.30;;;10.00;98.00;;;;;;6244033;22;20405;-70
2022/03/31 09:37:59;;;;;;;5.33;2.53;;;10.10;98.00;;;;;;6244428;22;20517;-68
2022/03/31 09:40:37;;;;;;;1.97;1.63;;;10.20;98.00;;;;;;6244811;22;20434;-68
2022/03/31 09:43:05;;;;;;;1.93;1.73;;;10.20;98.00;;;;;;6244305;22;20409;-68
2022/03/31 09:45:39;;;;;;;3.43;2.00;;;10.30;98.00;;;;;;6244328;22;20397;-68
2022/03/31 09:48:17;;;;;;;3.00;2.33;;;10.30;98.00;;;;;;6244846;22;20474;-68
2022/03/31 09:50:44;;;;;;;6.10;2.60;;;10.40;98.00;;;;;;6166757;22;20438;-68
2022/03/31 09:53:13;;;;;;;3.43;2.30;;;10.10;98.00;;;;;;6091842;23;20426;-70
2022/03/31 09:55:43;;;;;;;1.50;1.40;;;10.00;98.00;;;;;;6119046;23;20410;-70
2022/03/31 09:58:27;;;;;;;2.20;2.00;;;10.00;98.00;;;;;;6119336;23;20516;-70
2022/03/31 10:00:55;;;;;;;2.27;1.60;;;10.00;98.00;;;;;;6074688;23;20402;-70
2022/03/31 10:03:24;;;;;;;1.90;1.77;;;10.00;98.00;;;;;;6121385;23;20417;-70
2022/03/31 10:05:53;;;;;;;2.80;1.80;;;10.10;98.00;;;;;;6120899;23;20406;-71
2022/03/31 10:08:21;;;;;;;1.57;1.53;;;10.20;98.00;;;;;;6120647;23;21095;-68
2022/03/31 10:10:50;;;;;;;3.60;2.90;;;10.30;98.00;;;;;;6094823;23;20398;-68
2022/03/31 10:13:23;;;;;;;4.40;1.70;;;10.40;98.00;;;;;;6120466;23;20430;-68
2022/03/31 10:15:57;;;;;;;3.40;2.67;;;10.40;98.00;;;;;;6120443;23;20440;-68
2022/03/31 10:18:24;;;;;;;2.23;1.70;;;10.40;98.00;;;;;;6120309;23;20445;-70
2022/03/31 10:20:57;;;;;;;2.40;2.00;;;10.40;98.00;;;;;;6120433;23;20496;-68
2022/03/31 10:26:21;;;;;;;3.30;2.23;;;10.40;98.00;;;;;;6120575;23;20448;-69
2022/03/31 10:28:54;;;;;;;3.30;1.70;;;10.30;98.00;;;;;;6120389;23;20411;-68
2022/03/31 10:31:21;;;;;;;3.00;1.90;;;10.20;98.00;;;;;;6120850;23;20766;-69
2022/03/31 10:33:52;;;;;;;2.30;2.10;;;10.30;98.00;;;;;;6121097;23;20775;-69
2022/03/31 10:36:22;;;;;;;1.90;1.60;;;10.20;98.00;;;;;;6120773;23;20404;-68
2022/03/31 10:38:54;;;;;;;1.40;1.30;;;10.20;98.00;;;;;;6120169;23;20526;-68
2022/03/31 10:41:30;;;;;;;1.63;1.57;;;10.20;98.00;;;;;;6120853;23;20734;-69
2022/03/31 10:43:58;;;;;;;2.17;1.70;;;10.20;98.00;;;;;;6120380;23;20413;-68
2022/03/31 10:46:28;;;;;;;3.53;2.03;;;10.40;98.00;;;;;;6120591;23;20441;-68
2022/03/31 10:49:09;;;;;;;2.57;1.70;;;10.60;98.00;;;;;;6119871;23;20471;-68
2022/03/31 10:51:37;;;;;;;2.60;2.23;;;10.70;98.00;;;;;;6118420;23;20772;-69
2022/03/31 10:54:06;;;;;;;2.57;1.77;;;10.70;98.00;;;;;;6119330;23;20401;-68
2022/03/31 10:56:34;;;;;;;3.30;2.43;;;10.70;98.00;;;;;;6120125;23;20792;-69
2022/03/31 10:59:03;;;;;;;3.00;2.27;;;10.70;98.00;;;;;;6119689;23;20775;-68
2022/03/31 11:01:33;;;;;;;1.77;1.73;;;10.70;98.00;;;;;;6119369;23;20910;-68
2022/03/31 11:04:02;;;;;;;1.73;1.53;;;10.80;98.00;;;;;;6119655;23;20438;-68
2022/03/31 11:06:30;;;;;;;3.47;1.87;;;11.00;98.00;;;;;;6119869;23;20474;-68
2022/03/31 11:08:57;;;;;;;1.83;1.67;;;11.20;98.00;;;;;;6093980;23;20427;-68
2022/03/31 11:11:25;;;;;;;2.77;2.27;;;11.40;98.00;;;;;;6119866;23;20423;-68
2022/03/31 11:13:55;;;;;;;2.90;2.37;;;11.40;98.00;;;;;;6119191;23;20485;-69
2022/03/31 11:16:22;;;;;;;3.93;2.00;;;11.50;98.00;;;;;;6119127;23;20417;-69
2022/03/31 11:18:57;;;;;;;3.10;2.17;;;11.60;98.00;;;;;;6119507;23;20797;-68
2022/03/31 11:21:25;;;;;;;2.17;2.07;;;11.90;98.00;;;;;;6119303;23;20415;-69
2022/03/31 11:23:56;;;;;;;2.87;2.50;;;12.30;98.00;;;;;;6119486;23;20775;-68
2022/03/31 11:26:27;;;;;;;3.50;3.00;;;12.90;98.00;;;;;;6119782;23;20890;-68
2022/03/31 11:28:56;;;;;;;2.37;2.20;;;13.10;98.00;;;;;;6093349;23;20422;-69
2022/03/31 11:31:23;;;;;;;3.20;2.07;;;13.10;98.00;;;;;;6119340;23;20454;-68
2022/03/31 11:33:50;;;;;;;3.30;2.13;;;13.10;98.00;;;;;;6119607;23;20398;-69
2022/03/31 11:36:18;;;;;;;3.87;2.10;;;12.90;98.00;;;;;;6119622;23;20834;-68
2022/03/31 11:38:55;;;;;;;1.47;1.40;;;12.70;98.00;;;;;;6118998;23;20452;-71
2022/03/31 11:41:22;;;;;;;1.63;1.50;;;12.60;98.00;;;;;;6119027;23;20402;-70
2022/03/31 11:43:49;;;;;;;2.83;2.00;;;13.00;98.00;;;;;;6119518;23;20407;-70
2022/03/31 11:46:18;;;;;;;1.93;1.70;;;13.10;98.00;;;;;;6119842;23;20482;-69
2022/03/31 11:48:49;;;;;;;3.80;2.50;;;13.30;98.00;;;;;;6119694;23;20473;-69
2022/03/31 11:51:16;;;;;;;2.00;1.63;;;13.10;98.00;;;;;;6118221;23;20476;-69
2022/03/31 11:53:47;;;;;;;1.70;1.67;;;12.80;98.00;;;;;;6119287;23;20740;-68
2022/03/31 11:56:21;;;;;;;2.17;1.80;;;12.80;98.00;;;;;;6128973;23;20802;-68
2022/03/31 11:58:50;;;;;;;2.03;1.73;;;12.90;98.00;;;;;;6119337;23;20435;-69
2022/03/31 12:01:21;;;;;;;3.70;2.17;;;13.20;98.00;;;;;;6119388;23;20794;-69
2022/03/31 12:03:48;;;;;;;2.27;1.90;;;13.20;98.00;;;;;;6119194;23;20408;-69
2022/03/31 12:06:16;;;;;;;2.60;1.80;;;13.20;98.00;;;;;;6119401;23;20736;-69
2022/03/31 12:08:44;;;;;;;2.40;1.20;;;13.20;98.00;;;;;;6119238;23;20399;-69
2022/03/31 12:11:13;;;;;;;3.40;2.00;;;13.40;98.00;;;;;;6119521;23;20403;-68
2022/03/31 12:13:49;;;;;;;2.90;2.03;;;13.60;98.00;;;;;;6119497;23;20795;-69
2022/03/31 12:16:17;;;;;;;1.47;1.43;;;13.70;98.00;;;;;;6119463;23;20420;-70
2022/03/31 12:18:44;;;;;;;2.20;1.63;;;13.80;98.00;;;;;;6119388;23;20437;-70
2022/03/31 12:21:12;;;;;;;2.47;2.00;;;13.80;98.00;;;;;;6119135;23;20411;-69
2022/03/31 12:23:43;;;;;;;2.23;1.40;;;13.60;98.00;;;;;;6119487;23;20886;-69
2022/03/31 12:26:16;;;;;;;3.53;2.30;;;13.50;98.00;;;;;;6119007;23;20898;-69
2022/03/31 12:28:44;;;;;;;2.20;1.80;;;13.40;98.00;;;;;;6119406;23;20409;-68
2022/03/31 12:31:22;;;;;;;3.30;2.63;;;13.50;98.00;;;;;;6119142;23;20406;-69
2022/03/31 12:33:52;;;;;;;2.47;2.10;;;13.40;98.00;;;;;;6119392;23;20402;-72
2022/03/31 12:36:25;;;;;;;6.03;1.67;;;13.50;98.00;;;;;;6119480;23;20405;-69
2022/03/31 12:38:55;;;;;;;1.83;1.77;;;13.80;98.00;;;;;;6119304;23;20430;-69
2022/03/31 12:41:24;;;;;;;2.10;1.60;;;14.10;98.00;;;;;;6119461;23;20867;-69
2022/03/31 12:44:02;;;;;;;3.13;2.10;;;14.40;98.00;;;;;;6119576;23;20485;-73
2022/03/31 12:46:33;;;;;;;2.00;1.43;;;14.60;98.00;;;;;;6119463;23;20470;-72
2022/03/31 12:49:04;;;;;;;5.20;1.50;;;14.50;98.00;;;;;;6119360;23;20410;-69
2022/03/31 12:51:44;;;;;;;3.70;2.30;;;14.40;98.00;;;;;;6118084;23;20439;-68
2022/03/31 12:54:26;;;;;;;2.63;1.63;;;14.30;98.00;;;;;;6119073;23;20407;-68
2022/03/31 12:56:54;;;;;;;2.50;2.10;;;14.30;98.00;;;;;;6118843;23;20909;-68
2022/03/31 12:59:24;;;;;;;1.90;1.57;;;14.40;98.00;;;;;;6118730;23;20482;-67
2022/03/31 13:02:00;;;;;;;2.33;1.90;;;14.50;98.00;;;;;;6118983;23;20403;-67
2022/03/31 13:04:28;;;;;;;1.87;1.50;;;14.50;98.00;;;;;;6093290;23;20406;-68
2022/03/31 13:06:56;;;;;;;3.87;1.97;;;14.50;98.00;;;;;;6119143;23;20778;-67